Time;durP1;ratioP1;P1;durP2;ratioP2;P2;SDS_P1;SDS_P2;PMS_P1;PMS_P2;Temp;Humidity;BMP_temperature;BMP_pressure;BME280_temperature;BME280_humidity;BME280_pressure;Samples;Min_cycle;Max_cycle;Signal;HPM_P1;HPM_P2
2021/05/04 00:02:05;;;;;;;5.32;2.58;;;;;;;19.35;44.39;100117.47;5047190;28;20040;-22
2021/05/04 00:04:30;;;;;;;6.97;2.83;;;;;;;18.98;44.96;100110.53;5045699;28;20037;-22
2021/05/04 00:06:56;;;;;;;5.38;2.55;;;;;;;19.52;44.23;100131.47;5045619;28;20083;-22
2021/05/04 00:09:22;;;;;;;4.95;2.92;;;;;;;19.25;45.50;100121.03;5046841;28;20466;-21
2021/05/04 00:11:47;;;;;;;6.28;2.60;;;;;;;19.18;44.77;100125.91;5047201;28;20025;-22
2021/05/04 00:14:13;;;;;;;7.65;2.92;;;;;;;18.86;45.45;100135.97;5047174;28;20043;-22
2021/05/04 00:16:38;;;;;;;10.02;4.88;;;;;;;18.70;45.72;100123.53;5047028;28;20138;-22
2021/05/04 00:19:04;;;;;;;6.63;2.75;;;;;;;18.78;45.67;100128.38;5047101;28;20083;-23
2021/05/04 00:21:30;;;;;;;4.53;2.50;;;;;;;18.73;45.86;100147.28;5046889;28;20121;-21
2021/05/04 00:23:55;;;;;;;5.65;2.60;;;;;;;18.36;48.02;100153.75;5047214;28;20040;-22
2021/05/04 00:26:21;;;;;;;5.57;2.65;;;;;;;18.48;47.73;100157.00;5047346;28;20029;-21
2021/05/04 00:28:46;;;;;;;7.13;2.97;;;;;;;18.35;48.99;100159.44;5051346;28;20032;-21
2021/05/04 00:31:14;;;;;;;14.18;3.40;;;;;;;18.17;48.37;100147.28;5051005;28;20040;-22
2021/05/04 00:33:39;;;;;;;6.87;2.80;;;;;;;17.86;49.72;100155.28;5051163;28;20055;-21
2021/05/04 00:36:05;;;;;;;5.65;2.60;;;;;;;17.82;49.13;100159.56;5050742;28;20477;-22
2021/05/04 00:38:30;;;;;;;6.50;2.70;;;;;;;17.92;50.23;100167.72;5050589;28;20037;-22
2021/05/04 00:40:55;;;;;;;6.10;2.70;;;;;;;17.98;50.87;100155.03;5050866;28;20463;-22
2021/05/04 00:43:28;;;;;;;8.27;3.20;;;;;;;17.94;49.53;100168.28;5050910;28;20025;-22
2021/05/04 00:45:54;;;;;;;8.52;3.35;;;;;;;17.88;50.15;100166.63;5050780;28;20024;-22
2021/05/04 00:48:19;;;;;;;4.70;2.63;;;;;;;18.16;49.54;100156.44;5050335;28;20484;-22
2021/05/04 00:50:45;;;;;;;5.63;2.75;;;;;;;17.79;49.61;100149.28;5050244;28;20052;-22
2021/05/04 00:53:10;;;;;;;6.38;3.00;;;;;;;17.67;50.36;100153.03;5050569;28;20191;-22
2021/05/04 00:55:36;;;;;;;7.03;2.92;;;;;;;17.96;49.79;100158.03;5050751;28;20040;-22
2021/05/04 00:58:01;;;;;;;6.85;2.67;;;;;;;18.31;48.18;100167.28;5050567;28;20036;-22
2021/05/04 01:00:27;;;;;;;6.03;2.70;;;;;;;18.51;48.75;100154.84;5050261;28;20029;-22
2021/05/04 01:02:53;;;;;;;7.10;2.90;;;;;;;18.30;49.56;100176.44;5050429;28;20029;-22
2021/05/04 01:05:18;;;;;;;6.00;2.67;;;;;;;17.75;51.29;100175.16;5049076;28;20060;-22
2021/05/04 01:07:43;;;;;;;7.38;2.83;;;;;;;18.31;50.28;100188.88;5050335;28;20060;-22
2021/05/04 01:10:09;;;;;;;5.03;2.58;;;;;;;18.15;50.72;100198.00;5050308;28;20059;-21
2021/05/04 01:12:35;;;;;;;6.60;2.85;;;;;;;18.41;49.84;100199.69;5050523;28;20402;-21
2021/05/04 01:15:00;;;;;;;7.65;3.30;;;;;;;17.99;50.83;100203.34;5049303;28;20752;-22
2021/05/04 01:17:26;;;;;;;4.88;3.40;;;;;;;17.89;52.97;100203.31;5050802;28;20048;-21
2021/05/04 01:19:51;;;;;;;6.82;3.30;;;;;;;17.10;53.81;100186.16;5049026;28;20832;-22
2021/05/04 01:22:17;;;;;;;7.32;3.42;;;;;;;17.43;53.17;100203.06;5049663;28;20036;-21
2021/05/04 01:24:44;;;;;;;9.05;3.60;;;;;;;17.48;54.32;100203.09;5050053;28;20061;-22
2021/05/04 01:27:09;;;;;;;7.78;4.22;;;;;;;17.28;54.95;100176.81;5049993;28;20025;-22
2021/05/04 01:29:35;;;;;;;6.88;4.03;;;;;;;17.62;54.32;100195.34;5048574;28;20554;-22
2021/05/04 01:32:00;;;;;;;9.40;4.65;;;;;;;17.96;53.20;100194.97;5049887;28;20037;-22
2021/05/04 01:34:26;;;;;;;9.38;4.85;;;;;;;18.14;52.95;100193.69;5049727;28;20131;-22
2021/05/04 01:36:51;;;;;;;8.07;4.47;;;;;;;17.57;53.90;100188.06;5049617;28;20120;-22
2021/05/04 01:39:17;;;;;;;7.75;4.53;;;;;;;17.11;55.40;100177.00;5048553;28;20032;-22
2021/05/04 01:41:43;;;;;;;9.02;4.85;;;;;;;17.03;55.54;100190.94;5048349;28;20048;-22
2021/05/04 01:44:09;;;;;;;6.18;4.32;;;;;;;16.65;57.03;100179.28;5050049;28;20040;-22
2021/05/04 01:46:35;;;;;;;9.10;4.90;;;;;;;16.60;56.97;100192.72;5049909;28;20028;-22
2021/05/04 01:49:04;;;;;;;9.80;5.20;;;;;;;16.62;57.09;100187.91;5048075;28;20048;-21
2021/05/04 01:51:30;;;;;;;6.82;4.70;;;;;;;16.92;56.15;100202.69;5049535;28;20025;-22
2021/05/04 01:53:56;;;;;;;7.78;4.80;;;;;;;17.31;54.77;100183.59;5049783;28;20112;-22
2021/05/04 01:56:21;;;;;;;9.75;5.57;;;;;;;17.60;54.26;100187.50;5048156;28;20029;-21
2021/05/04 01:58:47;;;;;;;9.98;5.20;;;;;;;17.48;54.03;100198.50;5049797;28;20032;-21
2021/05/04 02:01:12;;;;;;;8.40;5.40;;;;;;;17.65;52.21;100187.56;5049331;28;20028;-22
2021/05/04 02:03:38;;;;;;;7.72;5.10;;;;;;;17.59;51.73;100175.13;5048359;28;20033;-22
2021/05/04 02:06:03;;;;;;;9.20;5.53;;;;;;;17.61;51.42;100196.41;5048253;28;20040;-23
2021/05/04 02:08:29;;;;;;;7.85;4.97;;;;;;;17.59;51.20;100202.09;5049351;28;20119;-22
2021/05/04 02:10:54;;;;;;;6.78;4.45;;;;;;;17.22;50.93;100202.94;5048145;28;20094;-22
2021/05/04 02:13:21;;;;;;;7.47;4.38;;;;;;;17.04;52.41;100206.88;5049181;28;20041;-23
2021/05/04 02:15:47;;;;;;;12.02;5.10;;;;;;;16.90;53.23;100207.53;5049089;28;20029;-21
2021/05/04 02:18:12;;;;;;;9.07;4.38;;;;;;;16.91;53.09;100182.25;5048811;28;20494;-23
2021/05/04 02:20:38;;;;;;;6.43;4.32;;;;;;;16.94;53.50;100200.56;5048884;28;20638;-22
2021/05/04 02:23:03;;;;;;;6.25;4.35;;;;;;;16.73;54.15;100192.28;5049196;28;20387;-23
2021/05/04 02:25:29;;;;;;;9.10;4.40;;;;;;;17.10;54.29;100202.31;5048917;28;20029;-22
2021/05/04 02:27:54;;;;;;;8.10;4.78;;;;;;;17.49;52.37;100199.34;5048912;28;20079;-22
2021/05/04 02:30:20;;;;;;;7.45;4.28;;;;;;;17.34;51.30;100212.72;5048520;28;20025;-22
2021/05/04 02:32:46;;;;;;;7.32;4.07;;;;;;;17.91;50.47;100211.94;5048652;28;20068;-22
2021/05/04 02:35:12;;;;;;;8.73;3.80;;;;;;;17.30;52.29;100217.00;5048589;28;20033;-21
2021/05/04 02:37:37;;;;;;;9.20;4.82;;;;;;;16.95;53.41;100231.84;5049240;28;20811;-22
2021/05/04 02:40:04;;;;;;;6.50;3.83;;;;;;;16.88;53.66;100226.66;5048985;28;20046;-21
2021/05/04 02:42:29;;;;;;;16.25;4.50;;;;;;;17.06;53.89;100211.97;5048712;28;20031;-21
2021/05/04 02:44:55;;;;;;;7.93;4.15;;;;;;;17.22;52.81;100219.13;5048895;28;20392;-22
2021/05/04 02:47:20;;;;;;;7.43;4.25;;;;;;;17.50;52.35;100233.28;5047228;28;20436;-22
2021/05/04 02:49:46;;;;;;;8.68;4.10;;;;;;;17.36;51.16;100237.53;5047726;28;20052;-23
2021/05/04 02:52:11;;;;;;;6.88;3.97;;;;;;;17.26;51.25;100233.69;5048448;28;20090;-22
2021/05/04 02:54:37;;;;;;;7.10;3.95;;;;;;;17.31;52.35;100242.91;5048381;28;20033;-22
2021/05/04 02:57:03;;;;;;;10.70;4.00;;;;;;;17.58;51.13;100251.69;5048490;28;20377;-22
2021/05/04 02:59:28;;;;;;;8.10;4.50;;;;;;;17.66;50.85;100263.88;5048426;28;20041;-22
2021/05/04 03:01:53;;;;;;;7.28;4.43;;;;;;;17.19;54.75;100246.56;5048126;28;20416;-22
2021/05/04 03:04:19;;;;;;;10.90;4.50;;;;;;;17.31;51.58;100261.75;5047898;28;20033;-21
2021/05/04 03:06:44;;;;;;;6.70;4.38;;;;;;;17.30;52.50;100265.50;5048190;28;20028;-22
2021/05/04 03:09:10;;;;;;;7.28;5.05;;;;;;;17.05;52.06;100269.63;5048018;28;20040;-22
2021/05/04 03:11:36;;;;;;;8.07;4.30;;;;;;;16.59;53.62;100271.84;5048162;28;20090;-21
2021/05/04 03:14:01;;;;;;;7.28;4.85;;;;;;;16.23;54.88;100274.16;5048290;28;20028;-22
2021/05/04 03:16:27;;;;;;;8.05;5.00;;;;;;;16.20;57.37;100280.03;5048016;28;20485;-20
2021/05/04 03:18:52;;;;;;;10.80;5.68;;;;;;;16.61;54.73;100285.88;5048078;28;20025;-22
2021/05/04 03:21:18;;;;;;;7.90;5.10;;;;;;;16.84;53.67;100288.31;5046712;28;20480;-22
2021/05/04 03:23:43;;;;;;;9.25;5.68;;;;;;;17.26;52.77;100303.78;5046638;28;20065;-22
2021/05/04 03:26:09;;;;;;;7.30;4.63;;;;;;;17.10;52.38;100283.16;5047609;28;20037;-22
2021/05/04 03:28:34;;;;;;;9.05;5.65;;;;;;;17.57;51.88;100304.00;5046396;28;20025;-22
2021/05/04 03:31:00;;;;;;;8.77;5.60;;;;;;;17.58;51.46;100305.63;5047046;28;20595;-22
2021/05/04 03:33:25;;;;;;;14.18;5.70;;;;;;;17.42;52.47;100301.19;5047057;28;20043;-22
2021/05/04 03:35:50;;;;;;;9.70;5.43;;;;;;;17.33;53.29;100308.13;5047642;28;20029;-22
2021/05/04 03:38:16;;;;;;;10.00;5.35;;;;;;;16.96;53.60;100292.72;5047652;28;20507;-22
2021/05/04 03:40:41;;;;;;;8.23;4.82;;;;;;;16.78;54.88;100293.88;5047445;28;20021;-22
2021/05/04 03:43:07;;;;;;;12.23;5.10;;;;;;;16.92;54.63;100318.53;5047561;28;20033;-22
2021/05/04 03:45:32;;;;;;;10.27;5.20;;;;;;;16.80;55.15;100337.53;5047350;28;20033;-20
2021/05/04 03:47:58;;;;;;;9.23;4.78;;;;;;;17.29;53.12;100329.41;5047404;28;20033;-22
2021/05/04 03:50:25;;;;;;;8.32;4.65;;;;;;;17.20;53.20;100320.97;5047018;28;20056;-21
2021/05/04 03:52:51;;;;;;;9.68;5.40;;;;;;;17.36;53.12;100329.19;5047501;28;20045;-21
2021/05/04 03:55:17;;;;;;;8.95;5.00;;;;;;;17.41;52.88;100331.94;5047744;28;20021;-22
2021/05/04 03:57:42;;;;;;;8.20;5.28;;;;;;;17.34;53.03;100328.63;5046134;28;20043;-22
2021/05/04 04:00:09;;;;;;;7.82;5.45;;;;;;;17.53;52.65;100332.56;5047097;28;20025;-22
2021/05/04 04:02:34;;;;;;;7.25;5.00;;;;;;;17.73;52.27;100336.47;5046157;28;20664;-22
2021/05/04 04:05:00;;;;;;;11.07;5.07;;;;;;;17.89;51.94;100338.22;5047212;28;20102;-22
2021/05/04 04:07:25;;;;;;;8.68;4.70;;;;;;;17.93;51.64;100339.31;5047267;28;20473;-22
2021/05/04 04:09:51;;;;;;;7.85;4.30;;;;;;;17.79;52.21;100341.63;5047049;28;20021;-22
2021/05/04 04:12:16;;;;;;;9.38;4.38;;;;;;;17.79;51.33;100338.13;5046796;28;20563;-22
2021/05/04 04:14:42;;;;;;;8.32;4.65;;;;;;;17.67;51.96;100346.38;5046974;28;20098;-22
2021/05/04 04:17:07;;;;;;;5.82;4.00;;;;;;;17.61;51.34;100348.25;5046877;28;20040;-22
2021/05/04 04:19:32;;;;;;;10.02;4.70;;;;;;;17.38;52.35;100364.78;5047207;28;20036;-22
2021/05/04 04:21:58;;;;;;;9.23;4.88;;;;;;;16.89;53.67;100367.53;5046962;28;20028;-22
2021/05/04 04:24:23;;;;;;;8.63;4.32;;;;;;;16.82;53.00;100349.69;5046834;28;20029;-21
2021/05/04 04:26:49;;;;;;;8.45;4.85;;;;;;;17.16;53.27;100375.63;5047761;28;20155;-22
2021/05/04 04:29:14;;;;;;;8.02;4.72;;;;;;;17.53;50.92;100370.31;5046839;28;20021;-21
2021/05/04 04:31:41;;;;;;;10.75;4.88;;;;;;;17.57;49.94;100373.28;5047282;28;20091;-22
2021/05/04 04:34:07;;;;;;;8.73;4.82;;;;;;;17.42;52.06;100371.28;5047091;28;20029;-22
2021/05/04 04:36:32;;;;;;;9.13;4.50;;;;;;;17.62;51.19;100376.84;5046675;28;20032;-22
2021/05/04 04:38:58;;;;;;;6.55;4.68;;;;;;;17.79;51.53;100373.19;5046982;28;20071;-23
2021/05/04 04:41:23;;;;;;;7.40;4.63;;;;;;;17.83;49.04;100377.03;5046780;28;20037;-22
2021/05/04 04:43:49;;;;;;;9.73;5.53;;;;;;;17.66;48.97;100374.44;5046797;28;20037;-22
2021/05/04 04:46:14;;;;;;;8.05;4.60;;;;;;;17.84;49.01;100378.66;5046727;28;20033;-22
2021/05/04 04:48:40;;;;;;;8.73;5.50;;;;;;;17.85;47.84;100372.19;5046341;28;20040;-22
2021/05/04 04:51:05;;;;;;;8.85;5.65;;;;;;;18.15;47.33;100378.84;5046821;28;20033;-22
2021/05/04 04:53:31;;;;;;;9.20;5.57;;;;;;;18.19;47.55;100371.84;5046939;28;20044;-22
2021/05/04 04:55:56;;;;;;;9.02;5.28;;;;;;;17.90;50.61;100361.44;5046764;28;20037;-22
2021/05/04 04:58:21;;;;;;;12.57;5.38;;;;;;;18.13;49.67;100389.09;5046687;28;20037;-22
2021/05/04 05:00:47;;;;;;;9.38;5.45;;;;;;;17.78;49.17;100364.28;5046564;28;20025;-20
2021/05/04 05:03:12;;;;;;;9.20;5.55;;;;;;;17.81;49.60;100395.31;5047087;28;20090;-21
2021/05/04 05:05:38;;;;;;;8.77;5.75;;;;;;;17.84;48.92;100387.56;5046821;28;20029;-22
2021/05/04 05:08:04;;;;;;;10.95;6.25;;;;;;;18.50;47.84;100401.69;5046786;28;20741;-22
2021/05/04 05:10:29;;;;;;;8.55;5.82;;;;;;;17.72;47.80;100386.09;5046380;28;20036;-22
2021/05/04 05:12:55;;;;;;;12.13;5.43;;;;;;;17.68;48.84;100407.38;5047789;28;20493;-22
2021/05/04 05:15:20;;;;;;;9.43;5.90;;;;;;;17.91;49.48;100408.91;5050222;28;20047;-22
2021/05/04 05:17:46;;;;;;;7.68;5.60;;;;;;;17.38;51.00;100407.91;5050766;28;20404;-21
2021/05/04 05:20:12;;;;;;;8.80;5.03;;;;;;;17.06;50.34;100389.81;5050080;28;20074;-22
2021/05/04 05:22:37;;;;;;;8.55;5.43;;;;;;;17.05;52.02;100410.56;5050052;28;20401;-22
2021/05/04 05:25:03;;;;;;;10.25;5.30;;;;;;;17.09;50.67;100396.59;5050130;28;20029;-22
2021/05/04 05:27:33;;;;;;;8.82;5.18;;;;;;;16.99;51.47;100378.44;5050096;28;20025;-22
2021/05/04 05:29:59;;;;;;;9.73;5.68;;;;;;;17.26;50.95;100406.19;5049844;28;20033;-22
2021/05/04 05:32:24;;;;;;;11.68;6.07;;;;;;;17.41;50.67;100407.41;5050048;28;20094;-22
2021/05/04 05:34:50;;;;;;;7.55;5.32;;;;;;;17.43;49.34;100410.66;5050046;28;20041;-23
2021/05/04 05:37:15;;;;;;;7.43;5.43;;;;;;;17.43;48.01;100400.69;5049853;28;20083;-21
2021/05/04 05:39:44;;;;;;;7.55;4.93;;;;;;;17.78;47.17;100390.44;5049795;28;20036;-22
2021/05/04 05:42:10;;;;;;;8.30;5.07;;;;;;;18.40;44.37;100370.84;5049780;28;20029;-22
2021/05/04 05:44:36;;;;;;;11.05;6.03;;;;;;;19.11;42.90;100390.31;5049607;28;20036;-22
2021/05/04 05:47:01;;;;;;;13.18;7.00;;;;;;;19.53;42.09;100410.88;5049778;28;20037;-21
2021/05/04 05:49:27;;;;;;;14.25;9.57;;;;;;;18.87;43.41;100380.78;5049218;28;20053;-21
2021/05/04 05:51:52;;;;;;;9.30;6.22;;;;;;;18.67;43.56;100397.72;5049951;28;20040;-22
2021/05/04 05:54:18;;;;;;;11.20;6.70;;;;;;;18.77;42.95;100399.63;5049757;28;20405;-20
2021/05/04 05:56:43;;;;;;;9.45;6.65;;;;;;;18.58;42.63;100414.69;5049661;28;20087;-22
2021/05/04 05:59:09;;;;;;;11.07;6.15;;;;;;;18.77;44.23;100405.03;5049435;28;20609;-22
2021/05/04 06:01:34;;;;;;;13.88;5.72;;;;;;;18.65;44.55;100399.88;5049394;28;20025;-22
2021/05/04 06:03:59;;;;;;;6.30;4.75;;;;;;;18.84;42.62;100394.84;5049477;28;20044;-22
2021/05/04 06:06:26;;;;;;;8.98;4.75;;;;;;;18.21;44.54;100410.19;5049426;28;20037;-22
2021/05/04 06:08:51;;;;;;;6.50;4.72;;;;;;;18.40;43.71;100400.56;5049179;28;20505;-22
2021/05/04 06:11:17;;;;;;;10.02;4.55;;;;;;;18.87;43.71;100413.19;5049272;28;20033;-22
2021/05/04 06:13:44;;;;;;;6.25;4.35;;;;;;;19.10;44.90;100405.69;5049093;28;20091;-22
2021/05/04 06:16:09;;;;;;;9.38;4.85;;;;;;;19.15;41.38;100408.41;5049357;28;20033;-22
2021/05/04 06:18:35;;;;;;;12.07;4.85;;;;;;;19.43;41.64;100408.97;5049225;28;20087;-22
2021/05/04 06:21:00;;;;;;;7.28;5.18;;;;;;;19.47;42.03;100410.06;5049154;28;20036;-21
2021/05/04 06:23:26;;;;;;;6.00;4.35;;;;;;;19.51;40.69;100413.06;5048998;28;20033;-22
2021/05/04 06:25:51;;;;;;;9.13;4.82;;;;;;;19.73;40.27;100399.28;5048202;28;20033;-22
2021/05/04 06:28:17;;;;;;;7.07;4.57;;;;;;;19.92;41.08;100413.06;5048649;28;20033;-22
2021/05/04 06:30:42;;;;;;;7.38;4.80;;;;;;;19.46;39.35;100394.94;5048984;28;20028;-21
2021/05/04 06:33:09;;;;;;;7.60;4.90;;;;;;;19.90;42.17;100397.13;5049114;28;20025;-22
2021/05/04 06:35:37;;;;;;;9.02;4.85;;;;;;;20.15;41.61;100406.28;5049099;28;20867;-22
2021/05/04 06:38:03;;;;;;;8.13;4.60;;;;;;;19.96;41.59;100385.19;5048930;28;20128;-21
2021/05/04 06:40:28;;;;;;;7.82;4.80;;;;;;;19.77;39.21;100409.28;5048969;28;20028;-22
2021/05/04 06:42:54;;;;;;;6.47;4.80;;;;;;;20.15;41.44;100398.16;5048874;28;20040;-22
2021/05/04 06:45:19;;;;;;;7.53;4.25;;;;;;;20.07;38.13;100384.09;5048581;28;20029;-22
2021/05/04 06:47:45;;;;;;;6.05;4.13;;;;;;;19.86;39.13;100396.84;5048670;28;20037;-22
2021/05/04 06:50:10;;;;;;;6.65;4.25;;;;;;;20.00;37.35;100391.69;5048139;28;20087;-21
2021/05/04 06:52:36;;;;;;;7.55;4.28;;;;;;;20.15;37.29;100390.03;5048248;28;20033;-22
2021/05/04 06:55:02;;;;;;;7.35;4.40;;;;;;;20.29;38.72;100382.94;5048188;28;20033;-22
2021/05/04 06:57:27;;;;;;;10.80;5.20;;;;;;;20.42;41.24;100376.13;5048057;28;20524;-23
2021/05/04 06:59:53;;;;;;;8.48;4.60;;;;;;;19.91;40.54;100376.28;5048009;28;20032;-22
2021/05/04 07:02:18;;;;;;;9.70;4.28;;;;;;;20.42;40.68;100368.81;5047800;28;20044;-22
2021/05/04 07:04:44;;;;;;;5.47;4.00;;;;;;;20.72;39.82;100367.09;5048267;28;20032;-21
2021/05/04 07:07:09;;;;;;;6.35;3.92;;;;;;;21.16;39.29;100368.97;5048135;28;20029;-21
2021/05/04 07:09:34;;;;;;;9.57;3.90;;;;;;;21.06;37.38;100363.63;5048219;28;20032;-20
2021/05/04 07:12:00;;;;;;;32.83;5.65;;;;;;;21.52;37.56;100346.22;5048211;28;20824;-21
2021/05/04 07:14:26;;;;;;;28.33;5.72;;;;;;;21.51;37.54;100345.41;5048150;28;20109;-21
2021/05/04 07:16:51;;;;;;;7.88;3.38;;;;;;;21.20;34.91;100353.75;5048467;28;20037;-22
2021/05/04 07:19:17;;;;;;;5.25;3.17;;;;;;;21.08;34.22;100345.16;5048062;28;20021;-22
2021/05/04 07:21:43;;;;;;;5.57;3.40;;;;;;;20.97;34.88;100349.06;5048112;28;20546;-22
2021/05/04 07:24:09;;;;;;;6.97;3.30;;;;;;;20.96;35.35;100331.16;5047944;28;20032;-22
2021/05/04 07:26:35;;;;;;;7.07;3.47;;;;;;;21.03;35.15;100343.31;5047568;28;20111;-22
2021/05/04 07:29:01;;;;;;;6.00;3.53;;;;;;;21.19;35.29;100351.34;5047694;28;20112;-22
2021/05/04 07:31:28;;;;;;;5.90;4.00;;;;;;;20.75;36.53;100347.53;5047883;28;20102;-21
2021/05/04 07:33:53;;;;;;;6.23;3.53;;;;;;;20.62;36.19;100337.34;5047842;28;20048;-22
2021/05/04 07:36:19;;;;;;;6.93;3.50;;;;;;;20.96;36.04;100325.72;5047489;28;20037;-22
2021/05/04 07:38:44;;;;;;;6.25;3.40;;;;;;;20.99;34.97;100344.16;5047586;28;20025;-21
2021/05/04 07:41:10;;;;;;;4.78;3.15;;;;;;;21.09;35.56;100340.56;5047525;28;20087;-22
2021/05/04 07:43:36;;;;;;;8.23;3.63;;;;;;;21.10;36.25;100336.75;5047417;28;20481;-21
2021/05/04 07:46:01;;;;;;;16.15;4.75;;;;;;;21.13;36.41;100331.59;5047714;28;20052;-22
2021/05/04 07:48:27;;;;;;;7.40;3.70;;;;;;;21.55;37.96;100341.00;5047196;28;20029;-21
2021/05/04 07:50:52;;;;;;;6.55;3.67;;;;;;;22.26;35.56;100335.97;5047611;28;20084;-21
2021/05/04 07:53:18;;;;;;;5.97;3.47;;;;;;;22.49;35.88;100330.78;5047424;28;20036;-21
2021/05/04 07:55:46;;;;;;;5.78;3.33;;;;;;;22.05;37.09;100338.09;5047406;28;20041;-22
2021/05/04 07:58:12;;;;;;;7.45;4.28;;;;;;;21.86;37.49;100324.44;5047385;28;20516;-20
2021/05/04 08:00:37;;;;;;;10.77;5.05;;;;;;;22.53;35.96;100335.34;5047600;28;20033;-22
2021/05/04 08:03:03;;;;;;;14.57;10.50;;;;;;;22.10;37.65;100320.91;5047200;28;20095;-22
2021/05/04 08:05:29;;;;;;;10.43;6.57;;;;;;;21.78;36.22;100334.03;5047249;28;20028;-22
2021/05/04 08:07:54;;;;;;;10.55;5.22;;;;;;;21.76;36.34;100332.69;5047145;28;20033;-22
2021/05/04 08:10:20;;;;;;;10.30;5.60;;;;;;;21.57;35.45;100330.69;5046590;28;20025;-22
2021/05/04 08:12:45;;;;;;;9.65;6.07;;;;;;;21.65;35.34;100310.25;5046116;28;20477;-23
2021/05/04 08:15:22;;;;;;;9.77;6.40;;;;;;;22.35;36.75;100323.38;5047087;28;20044;-22
2021/05/04 08:18:09;;;;;;;8.93;5.80;;;;;;;22.14;38.80;100313.81;5046111;28;20059;-21
2021/05/04 08:20:36;;;;;;;9.68;4.50;;;;;;;22.38;38.90;100327.41;5047091;28;20029;-22
2021/05/04 08:23:02;;;;;;;6.97;4.25;;;;;;;22.13;34.12;100315.72;5047104;28;20037;-22
2021/05/04 08:25:27;;;;;;;7.00;4.15;;;;;;;22.19;38.07;100302.88;5045995;28;20472;-22
2021/05/04 08:27:53;;;;;;;5.75;3.85;;;;;;;22.35;39.18;100323.38;5047073;28;20032;-22
2021/05/04 08:30:19;;;;;;;5.47;3.95;;;;;;;22.43;35.65;100281.97;5046709;28;20783;-22
2021/05/04 08:32:44;;;;;;;6.50;3.63;;;;;;;22.77;37.16;100308.09;5047014;28;20025;-22
2021/05/04 08:35:10;;;;;;;7.60;3.60;;;;;;;22.44;38.21;100327.03;5046936;28;20039;-21
2021/05/04 08:37:36;;;;;;;7.85;3.70;;;;;;;22.90;35.34;100330.22;5046669;28;20021;-22
2021/05/04 08:40:02;;;;;;;8.10;4.00;;;;;;;23.15;35.62;100321.69;5046976;28;20029;-21
2021/05/04 08:42:27;;;;;;;6.78;3.65;;;;;;;23.51;32.81;100310.19;5045255;28;20036;-22
2021/05/04 08:44:53;;;;;;;8.07;3.40;;;;;;;23.28;35.13;100325.56;5046982;28;20033;-21
2021/05/04 08:47:19;;;;;;;6.22;3.95;;;;;;;23.24;35.15;100330.78;5046051;28;20029;-22
2021/05/04 08:49:46;;;;;;;7.07;3.92;;;;;;;22.79;34.88;100300.47;5050534;28;20048;-21
2021/05/04 08:52:11;;;;;;;8.52;3.95;;;;;;;23.75;34.92;100326.38;5050295;28;20060;-20
2021/05/04 08:54:37;;;;;;;6.13;3.50;;;;;;;23.64;32.00;100330.41;5050696;28;20528;-21
2021/05/04 08:57:02;;;;;;;5.97;3.60;;;;;;;23.58;33.55;100313.34;5050843;28;20028;-22
2021/05/04 08:59:28;;;;;;;11.25;3.30;;;;;;;23.33;34.77;100324.66;5051091;28;20819;-23
2021/05/04 09:01:53;;;;;;;11.50;3.42;;;;;;;23.33;33.09;100330.09;5050728;28;20025;-23
2021/05/04 09:04:51;;;;;;;7.40;3.30;;;;;;;23.71;34.36;100317.19;5050429;28;20037;-23
2021/05/04 09:07:26;;;;;;;6.03;2.95;;;;;;;23.75;32.14;100320.13;5050638;28;20025;-23
2021/05/04 09:09:58;;;;;;;6.95;3.20;;;;;;;23.40;33.18;100323.19;5050670;28;20043;-23
2021/05/04 09:12:32;;;;;;;5.18;3.35;;;;;;;24.17;32.83;100307.34;5050257;28;20116;-23
2021/05/04 09:15:04;;;;;;;5.78;2.65;;;;;;;23.81;31.73;100314.31;5050149;28;20033;-23
2021/05/04 09:17:36;;;;;;;8.15;3.03;;;;;;;24.27;34.30;100298.94;5050409;28;20131;-22
2021/05/04 09:22:47;;;;;;;6.50;3.17;;;;;;;24.31;32.10;100304.59;5050035;28;20532;-22
2021/05/04 09:25:28;;;;;;;7.70;3.55;;;;;;;24.45;31.92;100284.38;5050100;28;20028;-22
2021/05/04 09:28:12;;;;;;;5.40;2.83;;;;;;;24.34;31.01;100277.56;5050047;28;20472;-22
2021/05/04 09:30:38;;;;;;;7.00;3.13;;;;;;;24.14;32.08;100286.16;5050128;28;20453;-20
2021/05/04 09:33:07;;;;;;;5.45;2.70;;;;;;;23.97;32.54;100279.41;5050043;28;20028;-21
2021/05/04 09:35:32;;;;;;;7.97;2.90;;;;;;;24.13;30.96;100287.25;5050380;28;20033;-21
2021/05/04 09:38:07;;;;;;;5.05;2.85;;;;;;;24.59;30.79;100289.03;5049866;28;20106;-21
2021/05/04 09:40:40;;;;;;;4.15;2.40;;;;;;;24.62;30.95;100272.03;5049851;28;20063;-21
2021/05/04 09:43:08;;;;;;;5.45;2.55;;;;;;;24.68;30.17;100246.25;5049897;28;20029;-21
2021/05/04 09:45:34;;;;;;;;;;;;;;;24.38;31.27;100267.66;5050325;28;20037;-21
2021/05/04 09:48:35;;;;;;;4.72;2.50;;;;;;;24.61;32.15;100259.53;5049714;28;20404;-21
2021/05/04 09:51:05;;;;;;;4.55;2.50;;;;;;;24.67;29.55;100240.00;5048280;28;20045;-21
2021/05/04 09:56:10;;;;;;;3.92;2.35;;;;;;;24.95;30.33;100264.47;5049801;28;20554;-20
2021/05/04 09:58:36;;;;;;;5.18;2.40;;;;;;;25.74;29.01;100273.88;5049084;28;20040;-20
2021/05/04 10:01:03;;;;;;;6.93;2.80;;;;;;;25.66;28.04;100256.38;5048836;28;20035;-21
2021/05/04 10:03:28;;;;;;;5.18;2.80;;;;;;;25.16;31.57;100259.28;5049716;28;20741;-21
2021/05/04 10:05:58;;;;;;;10.27;3.13;;;;;;;24.88;31.57;100274.19;5049529;28;20036;-21
2021/05/04 10:08:24;;;;;;;4.82;2.50;;;;;;;24.33;30.66;100270.47;5049286;28;20029;-20
2021/05/04 10:10:49;;;;;;;5.60;2.70;;;;;;;24.43;32.84;100269.44;5031852;28;20100;-21
2021/05/04 10:13:15;;;;;;;4.85;2.50;;;;;;;24.55;29.35;100271.69;5049041;28;20048;-21
2021/05/04 10:15:44;;;;;;;4.80;2.30;;;;;;;25.15;29.68;100279.53;5047994;28;20025;-21
2021/05/04 10:18:09;;;;;;;3.63;2.28;;;;;;;25.31;28.26;100270.97;5049513;28;20033;-21
2021/05/04 10:20:35;;;;;;;5.32;2.20;;;;;;;25.56;28.23;100240.25;5048904;28;20032;-21
2021/05/04 10:23:00;;;;;;;6.40;3.20;;;;;;;25.65;27.87;100248.47;5049148;28;20033;-21
2021/05/04 10:25:26;;;;;;;5.25;2.35;;;;;;;25.30;27.86;100244.78;5031231;28;20029;-21
2021/05/04 10:27:52;;;;;;;7.88;2.58;;;;;;;24.83;27.96;100229.53;5049042;28;20086;-21
2021/05/04 10:30:18;;;;;;;5.00;2.22;;;;;;;25.19;28.36;100230.56;5047404;28;20021;-21
2021/05/04 10:32:49;;;;;;;4.50;2.20;;;;;;;25.67;28.68;100241.56;5048904;28;20121;-21
2021/05/04 10:35:29;;;;;;;4.38;2.00;;;;;;;26.13;26.03;100236.72;5048855;28;20099;-21
2021/05/04 10:38:02;;;;;;;3.70;2.22;;;;;;;26.09;25.91;100224.81;5048754;28;20036;-21
2021/05/04 10:40:31;;;;;;;5.57;2.35;;;;;;;26.76;25.85;100231.00;5048456;28;20025;-21
2021/05/04 10:42:58;;;;;;;4.40;2.22;;;;;;;26.28;26.53;100238.22;5048806;28;20040;-21
2021/05/04 10:45:41;;;;;;;6.82;2.58;;;;;;;25.88;25.80;100235.53;5048635;28;20032;-21
2021/05/04 10:48:08;;;;;;;3.30;2.10;;;;;;;26.17;27.08;100221.28;5048468;28;20029;-21
2021/05/04 10:50:48;;;;;;;4.75;2.30;;;;;;;26.17;27.71;100217.75;5047862;28;20425;-21
2021/05/04 10:53:15;;;;;;;3.95;2.08;;;;;;;26.01;28.22;100218.25;5048840;28;20397;-20
2021/05/04 10:55:52;;;;;;;3.03;2.10;;;;;;;25.83;27.69;100220.09;5048735;28;20037;-21
2021/05/04 10:58:18;;;;;;;4.72;2.45;;;;;;;25.77;26.36;100215.91;5048227;28;20111;-21
2021/05/04 11:00:53;;;;;;;6.28;2.63;;;;;;;26.01;28.05;100217.41;5048199;28;20117;-21
2021/05/04 11:03:43;;;;;;;4.25;1.98;;;;;;;26.77;25.86;100203.31;5048394;28;20032;-21
2021/05/04 11:06:32;;;;;;;4.22;1.98;;;;;;;26.64;25.32;100196.91;5047878;28;20110;-21
2021/05/04 11:08:58;;;;;;;3.92;2.10;;;;;;;27.01;25.39;100204.69;5047841;28;20485;-20
2021/05/04 11:11:41;;;;;;;4.00;1.90;;;;;;;27.00;26.78;100216.78;5048321;28;20045;-21
2021/05/04 11:14:18;;;;;;;3.53;2.08;;;;;;;26.45;26.15;100205.38;5048197;28;20033;-21
2021/05/04 11:16:47;;;;;;;4.72;2.10;;;;;;;26.37;26.92;100203.47;5048076;28;20170;-22
2021/05/04 11:19:31;;;;;;;4.05;2.55;;;;;;;26.98;25.79;100205.38;5047824;28;20036;-21
2021/05/04 11:25:43;;;;;;;;;;;;;;;27.93;24.35;100212.44;5047089;28;21030;-21
2021/05/04 11:28:09;;;;;;;3.47;1.92;;;;;;;26.94;24.44;100202.47;5047683;28;19908;-21
2021/05/04 11:30:34;;;;;;;3.67;1.90;;;;;;;26.92;24.99;100210.19;5047228;28;20029;-20
2021/05/04 11:33:01;;;;;;;4.88;1.90;;;;;;;26.66;23.86;100210.22;5047898;28;20025;-20